Time;durP1;ratioP1;P1;durP2;ratioP2;P2;SDS_P1;SDS_P2;PMS_P1;PMS_P2;Temp;Humidity;BMP_temperature;BMP_pressure;BME280_temperature;BME280_humidity;BME280_pressure;Samples;Min_cycle;Max_cycle;Signal;HPM_P1;HPM_P2
2022/03/11 00:01:57;;;;;;;9.57;6.20;;;;;;;;;;10342101;28;20596;-77
2022/03/11 00:06:58;;;;;;;10.40;6.95;;;;;;;;;;10343714;28;20199;-77
2022/03/11 00:11:59;;;;;;;11.15;6.57;;;;;;;;;;10345228;28;20200;-77
2022/03/11 00:17:02;;;;;;;8.27;6.15;;;;;;;;;;10335806;28;20207;-77
2022/03/11 00:22:03;;;;;;;12.32;6.57;;;;;;;;;;10342802;28;20225;-78
2022/03/11 00:27:04;;;;;;;10.20;5.93;;;;;;;;;;10346875;28;20258;-77
2022/03/11 00:32:07;;;;;;;9.38;6.57;;;;;;;;;;10375036;28;20216;-77
2022/03/11 00:37:08;;;;;;;10.53;6.80;;;;;;;;;;10345850;28;20339;-77
2022/03/11 00:42:09;;;;;;;11.60;6.70;;;;;;;;;;10347635;28;20221;-77
2022/03/11 00:47:10;;;;;;;10.05;6.20;;;;;;;;;;10346341;28;20284;-76
2022/03/11 00:52:11;;;;;;;15.95;7.45;;;;;;;;;;10345984;28;20207;-77
2022/03/11 00:57:12;;;;;;;10.13;6.70;;;;;;;;;;10342911;28;20238;-78
2022/03/11 01:02:13;;;;;;;12.00;7.25;;;;;;;;;;10343585;28;20316;-79
2022/03/11 01:07:15;;;;;;;10.25;6.60;;;;;;;;;;10346710;28;20236;-79
2022/03/11 01:12:16;;;;;;;10.88;7.00;;;;;;;;;;10347162;28;20197;-77
2022/03/11 01:17:17;;;;;;;11.32;7.15;;;;;;;;;;10345476;28;20240;-77
2022/03/11 01:22:18;;;;;;;11.00;6.40;;;;;;;;;;10341307;28;20324;-77
2022/03/11 01:27:19;;;;;;;9.07;6.32;;;;;;;;;;10349146;28;20350;-77
2022/03/11 01:32:20;;;;;;;13.85;7.05;;;;;;;;;;10345018;28;20299;-77
2022/03/11 01:37:21;;;;;;;13.35;6.82;;;;;;;;;;10349329;28;20605;-78
2022/03/11 01:42:23;;;;;;;14.40;7.93;;;;;;;;;;10343304;28;20701;-78
2022/03/11 01:47:24;;;;;;;9.43;6.17;;;;;;;;;;10340416;28;20245;-77
2022/03/11 01:52:25;;;;;;;12.43;6.88;;;;;;;;;;10351105;28;20204;-77
2022/03/11 01:57:26;;;;;;;12.75;6.90;;;;;;;;;;10346193;28;20303;-78
2022/03/11 02:02:28;;;;;;;9.03;6.57;;;;;;;;;;10342784;28;20224;-79
2022/03/11 02:07:30;;;;;;;13.32;6.50;;;;;;;;;;10350386;28;20287;-77
2022/03/11 02:12:32;;;;;;;10.13;5.80;;;;;;;;;;10376651;28;20207;-78
2022/03/11 02:17:33;;;;;;;15.68;6.63;;;;;;;;;;10342734;28;20209;-78
2022/03/11 02:22:40;;;;;;;9.82;6.25;;;;;;;;;;10337627;28;20302;-78
2022/03/11 02:27:42;;;;;;;9.17;6.60;;;;;;;;;;10377199;28;20207;-77
2022/03/11 02:32:43;;;;;;;7.57;6.17;;;;;;;;;;10345339;28;20281;-77
2022/03/11 02:37:45;;;;;;;13.97;6.37;;;;;;;;;;10347080;28;20200;-77
2022/03/11 02:42:46;;;;;;;13.07;7.30;;;;;;;;;;10344029;28;20250;-76
2022/03/11 02:47:47;;;;;;;12.07;6.43;;;;;;;;;;10345197;28;20210;-77
2022/03/11 02:52:48;;;;;;;8.97;5.77;;;;;;;;;;10345304;28;20587;-77
2022/03/11 02:57:49;;;;;;;9.47;6.43;;;;;;;;;;10343783;28;20294;-77
2022/03/11 03:02:50;;;;;;;10.20;6.73;;;;;;;;;;10371604;28;20666;-77
2022/03/11 03:07:51;;;;;;;9.03;5.90;;;;;;;;;;10344913;28;20205;-77
2022/03/11 03:12:52;;;;;;;8.05;5.57;;;;;;;;;;10346685;28;20262;-78
2022/03/11 03:17:53;;;;;;;11.63;6.27;;;;;;;;;;10344255;28;20251;-77
2022/03/11 03:22:54;;;;;;;10.67;6.50;;;;;;;;;;10346081;28;20208;-77
2022/03/11 03:27:55;;;;;;;12.77;6.77;;;;;;;;;;10342724;28;20199;-76
2022/03/11 03:32:56;;;;;;;10.37;6.03;;;;;;;;;;10345389;28;20255;-77
2022/03/11 03:37:57;;;;;;;10.20;5.43;;;;;;;;;;10340030;28;20748;-75
2022/03/11 03:42:58;;;;;;;11.83;6.47;;;;;;;;;;10344014;28;20215;-77
2022/03/11 03:48:00;;;;;;;8.83;6.30;;;;;;;;;;10340935;28;20196;-77
2022/03/11 03:53:01;;;;;;;10.07;6.63;;;;;;;;;;10340126;28;20399;-76
2022/03/11 03:58:02;;;;;;;13.20;7.00;;;;;;;;;;10346130;28;20746;-76
2022/03/11 04:03:03;;;;;;;13.13;6.73;;;;;;;;;;10352177;28;20254;-76
2022/03/11 04:08:04;;;;;;;12.37;6.67;;;;;;;;;;10348561;28;20201;-77
2022/03/11 04:13:05;;;;;;;12.73;6.77;;;;;;;;;;10348193;28;20577;-76
2022/03/11 04:18:06;;;;;;;9.10;5.67;;;;;;;;;;10379253;28;20208;-77
2022/03/11 04:23:07;;;;;;;11.70;6.27;;;;;;;;;;10346986;28;21203;-77
2022/03/11 04:28:08;;;;;;;11.50;6.77;;;;;;;;;;10346577;28;20196;-77
2022/03/11 04:33:09;;;;;;;13.43;6.85;;;;;;;;;;10343670;28;20865;-77
2022/03/11 04:38:10;;;;;;;14.70;7.07;;;;;;;;;;10375157;28;20212;-76
2022/03/11 04:43:11;;;;;;;18.50;6.63;;;;;;;;;;10372930;28;20216;-76
2022/03/11 04:48:14;;;;;;;10.63;6.53;;;;;;;;;;10340408;28;20244;-76
2022/03/11 04:53:15;;;;;;;11.20;6.93;;;;;;;;;;10375313;28;20212;-76
2022/03/11 04:58:16;;;;;;;14.03;6.73;;;;;;;;;;10343401;28;20237;-75
2022/03/11 05:03:17;;;;;;;11.63;6.73;;;;;;;;;;10340633;28;20241;-75
2022/03/11 05:08:18;;;;;;;11.53;6.83;;;;;;;;;;10372045;28;20286;-74
2022/03/11 05:13:19;;;;;;;10.40;7.13;;;;;;;;;;10375047;28;20199;-75
2022/03/11 05:18:20;;;;;;;13.57;7.13;;;;;;;;;;10338711;28;20216;-75
2022/03/11 05:23:22;;;;;;;12.87;7.50;;;;;;;;;;10340491;28;20220;-74
2022/03/11 05:28:23;;;;;;;13.43;7.33;;;;;;;;;;10368017;28;20279;-74
2022/03/11 05:33:24;;;;;;;14.10;6.87;;;;;;;;;;10335229;28;20219;-75
2022/03/11 05:38:25;;;;;;;13.40;6.40;;;;;;;;;;10294507;28;1235752;-74
2022/03/11 05:43:26;;;;;;;11.50;6.50;;;;;;;;;;10339050;28;20212;-76
2022/03/11 05:48:27;;;;;;;10.40;6.60;;;;;;;;;;10338530;28;21147;-76
2022/03/11 05:53:28;;;;;;;12.77;7.10;;;;;;;;;;10339020;28;20216;-75
2022/03/11 05:58:29;;;;;;;9.83;5.93;;;;;;;;;;10342396;28;20216;-75
2022/03/11 06:03:30;;;;;;;11.13;6.67;;;;;;;;;;10365112;28;20227;-77
2022/03/11 06:08:31;;;;;;;12.97;6.30;;;;;;;;;;10334153;28;20336;-75
2022/03/11 06:13:33;;;;;;;11.20;6.20;;;;;;;;;;10336222;28;20204;-74
2022/03/11 06:18:34;;;;;;;10.33;5.37;;;;;;;;;;10365394;28;20200;-67
2022/03/11 06:23:36;;;;;;;11.03;5.50;;;;;;;;;;10333634;28;20208;-73
2022/03/11 06:28:37;;;;;;;9.93;5.93;;;;;;;;;;10331345;28;20204;-74
2022/03/11 06:33:38;;;;;;;13.30;6.90;;;;;;;;;;10363005;28;20216;-74
2022/03/11 06:38:39;;;;;;;12.33;6.67;;;;;;;;;;10339304;28;20243;-76
2022/03/11 06:43:41;;;;;;;11.83;6.17;;;;;;;;;;10335015;28;20642;-75
2022/03/11 06:48:43;;;;;;;13.00;6.27;;;;;;;;;;10332057;28;20780;-74
2022/03/11 06:53:44;;;;;;;12.60;5.67;;;;;;;;;;10336283;28;20304;-75
2022/03/11 06:58:45;;;;;;;12.47;6.60;;;;;;;;;;10337429;28;20647;-71
2022/03/11 07:03:46;;;;;;;12.07;5.90;;;;;;;;;;10339452;28;20249;-74
2022/03/11 07:08:47;;;;;;;8.00;5.07;;;;;;;;;;10334053;28;20200;-76
2022/03/11 07:13:48;;;;;;;10.17;4.60;;;;;;;;;;10373015;28;20212;-74
2022/03/11 07:18:49;;;;;;;9.35;5.82;;;;;;;;;;10336660;28;20245;-75
2022/03/11 07:23:54;;;;;;;7.97;6.00;;;;;;;;;;10335775;28;20992;-75
2022/03/11 07:28:55;;;;;;;10.65;6.53;;;;;;;;;;10338802;28;20200;-75
2022/03/11 07:33:59;;;;;;;9.48;6.00;;;;;;;;;;10337821;28;20223;-75
2022/03/11 07:39:00;;;;;;;11.10;5.80;;;;;;;;;;10337818;28;20237;-75
2022/03/11 07:44:03;;;;;;;10.57;4.70;;;;;;;;;;10343287;28;20756;-75
2022/03/11 07:49:05;;;;;;;12.55;5.35;;;;;;;;;;10339765;28;20247;-75
2022/03/11 07:54:06;;;;;;;8.55;4.60;;;;;;;;;;10341278;28;20338;-75
2022/03/11 07:59:08;;;;;;;8.52;4.93;;;;;;;;;;10336366;28;20216;-75
2022/03/11 08:04:13;;;;;;;9.27;4.43;;;;;;;;;;10340009;28;20217;-76
2022/03/11 08:09:14;;;;;;;7.13;4.63;;;;;;;;;;10336652;28;20209;-76
2022/03/11 08:14:15;;;;;;;8.45;4.20;;;;;;;;;;10370335;28;20208;-75
2022/03/11 08:19:16;;;;;;;7.17;4.27;;;;;;;;;;10334672;28;20240;-76
2022/03/11 08:24:17;;;;;;;7.78;4.55;;;;;;;;;;10333869;28;20235;-76
2022/03/11 08:29:19;;;;;;;8.98;3.83;;;;;;;;;;10330393;28;21163;-76
2022/03/11 08:34:20;;;;;;;4.85;3.85;;;;;;;;;;10338386;28;20240;-77
2022/03/11 08:39:21;;;;;;;9.48;4.70;;;;;;;;;;10337809;28;20308;-76
2022/03/11 08:44:23;;;;;;;7.25;4.25;;;;;;;;;;10338578;28;20283;-76
2022/03/11 08:49:24;;;;;;;8.10;4.45;;;;;;;;;;10345686;28;20211;-76
2022/03/11 08:54:25;;;;;;;5.85;4.25;;;;;;;;;;10344083;28;20201;-76
2022/03/11 08:59:26;;;;;;;6.55;4.47;;;;;;;;;;10377914;28;20221;-77
2022/03/11 09:04:27;;;;;;;7.35;4.80;;;;;;;;;;10337323;28;20240;-77
2022/03/11 09:09:29;;;;;;;9.13;4.00;;;;;;;;;;10345223;28;20711;-77
2022/03/11 09:14:30;;;;;;;4.72;4.28;;;;;;;;;;10342050;28;20208;-73
2022/03/11 09:19:32;;;;;;;7.68;5.22;;;;;;;;;;10344306;28;20297;-77
2022/03/11 09:24:33;;;;;;;7.72;4.45;;;;;;;;;;10373379;28;20204;-77
2022/03/11 09:29:35;;;;;;;4.93;3.72;;;;;;;;;;10339194;28;20299;-77
2022/03/11 09:34:37;;;;;;;6.55;4.70;;;;;;;;;;10340760;28;20905;-82
2022/03/11 09:39:38;;;;;;;5.18;4.60;;;;;;;;;;10345806;28;20245;-80
2022/03/11 09:44:41;;;;;;;9.38;4.75;;;;;;;;;;10342203;28;20204;-78
2022/03/11 09:49:42;;;;;;;6.07;3.50;;;;;;;;;;10344111;28;20236;-79
2022/03/11 09:54:45;;;;;;;7.32;4.32;;;;;;;;;;10340245;28;20303;-79
2022/03/11 09:59:46;;;;;;;5.35;4.13;;;;;;;;;;10340690;28;20208;-81
2022/03/11 10:04:56;;;;;;;11.55;4.60;;;;;;;;;;10343185;28;20213;-81
2022/03/11 10:09:57;;;;;;;4.40;4.00;;;;;;;;;;10342379;28;20287;-78
2022/03/11 10:14:59;;;;;;;4.10;3.75;;;;;;;;;;10344498;28;20200;-79
2022/03/11 10:20:05;;;;;;;4.28;3.65;;;;;;;;;;10345970;28;20212;-79
2022/03/11 10:25:13;;;;;;;3.13;2.90;;;;;;;;;;10342945;28;20205;-79
2022/03/11 10:30:16;;;;;;;4.07;3.70;;;;;;;;;;10375257;28;20216;-79
2022/03/11 10:35:20;;;;;;;4.88;4.45;;;;;;;;;;10373421;28;21095;-78
2022/03/11 10:40:21;;;;;;;11.25;4.70;;;;;;;;;;10339039;28;20340;-77
2022/03/11 10:45:22;;;;;;;4.15;3.63;;;;;;;;;;10342827;28;20300;-77
2022/03/11 10:50:25;;;;;;;7.05;4.45;;;;;;;;;;10341964;28;20331;-79
2022/03/11 10:55:28;;;;;;;8.88;3.78;;;;;;;;;;10340762;28;20298;-79
2022/03/11 11:00:30;;;;;;;5.35;3.88;;;;;;;;;;10340289;28;20243;-80
2022/03/11 11:05:33;;;;;;;4.72;3.72;;;;;;;;;;10337724;28;20266;-80
2022/03/11 11:10:37;;;;;;;5.28;3.80;;;;;;;;;;10340076;28;20262;-80
2022/03/11 11:15:39;;;;;;;4.95;4.00;;;;;;;;;;10346363;28;20231;-78
2022/03/11 11:20:40;;;;;;;5.43;5.05;;;;;;;;;;10341859;28;20239;-78
2022/03/11 11:25:42;;;;;;;8.13;4.05;;;;;;;;;;10341905;28;20208;-78
2022/03/11 11:30:44;;;;;;;8.23;3.97;;;;;;;;;;10341203;28;20220;-79
2022/03/11 11:35:45;;;;;;;5.13;4.28;;;;;;;;;;10341464;28;20946;-80
2022/03/11 11:40:47;;;;;;;3.95;3.70;;;;;;;;;;10345042;28;20236;-80
2022/03/11 11:45:49;;;;;;;5.25;4.75;;;;;;;;;;10345673;28;20239;-79
2022/03/11 11:50:50;;;;;;;4.68;4.25;;;;;;;;;;10345450;28;20957;-80
2022/03/11 11:55:53;;;;;;;7.28;4.63;;;;;;;;;;10346780;28;20692;-80
2022/03/11 12:00:55;;;;;;;3.05;2.83;;;;;;;;;;10368607;28;20283;-80
2022/03/11 12:05:56;;;;;;;7.72;4.18;;;;;;;;;;10342417;28;20195;-77
2022/03/11 12:10:57;;;;;;;5.30;4.20;;;;;;;;;;10338714;28;20193;-80
2022/03/11 12:15:58;;;;;;;6.90;3.67;;;;;;;;;;10337234;28;20200;-80
2022/03/11 12:20:59;;;;;;;8.02;3.95;;;;;;;;;;10347882;28;20208;-77
2022/03/11 12:26:07;;;;;;;4.38;3.63;;;;;;;;;;10344531;28;20205;-79
2022/03/11 12:31:09;;;;;;;4.07;3.75;;;;;;;;;;10346165;28;20707;-83
2022/03/11 12:36:11;;;;;;;4.63;3.35;;;;;;;;;;10347658;28;20204;-83
2022/03/11 12:41:14;;;;;;;4.95;4.47;;;;;;;;;;10343900;28;20267;-79
2022/03/11 12:46:15;;;;;;;6.22;4.22;;;;;;;;;;10345436;28;20251;-79
2022/03/11 12:51:19;;;;;;;5.68;4.13;;;;;;;;;;10347010;28;20295;-80
2022/03/11 12:56:24;;;;;;;5.38;4.93;;;;;;;;;;10345399;28;20367;-75
2022/03/11 13:01:27;;;;;;;6.70;5.38;;;;;;;;;;10347398;28;20225;-80
2022/03/11 13:06:28;;;;;;;5.13;4.70;;;;;;;;;;10347427;28;20200;-80
2022/03/11 13:11:29;;;;;;;6.20;5.22;;;;;;;;;;10347993;28;20226;-79
2022/03/11 13:16:33;;;;;;;6.43;5.07;;;;;;;;;;10377136;28;20332;-83
2022/03/11 13:21:40;;;;;;;8.32;4.68;;;;;;;;;;10345666;28;20208;-78
2022/03/11 13:26:41;;;;;;;5.85;4.70;;;;;;;;;;10344829;28;20211;-77
2022/03/11 13:31:44;;;;;;;5.13;4.72;;;;;;;;;;10340578;28;20219;-79
2022/03/11 13:36:46;;;;;;;9.18;5.03;;;;;;;;;;10343653;28;20216;-75
2022/03/11 13:41:48;;;;;;;3.90;3.60;;;;;;;;;;10337536;28;20238;-79
2022/03/11 13:46:53;;;;;;;10.35;3.35;;;;;;;;;;10369275;28;20722;-77
2022/03/11 13:51:58;;;;;;;5.03;4.63;;;;;;;;;;10340928;28;20591;-77
2022/03/11 13:57:14;;;;;;;3.92;3.58;;;;;;;;;;10342822;28;20220;-75
2022/03/11 14:02:16;;;;;;;4.20;3.97;;;;;;;;;;10342788;28;20779;-75
2022/03/11 14:07:19;;;;;;;4.53;4.13;;;;;;;;;;10338587;28;20208;-78
2022/03/11 14:12:24;;;;;;;4.50;4.20;;;;;;;;;;10337389;28;20196;-78
2022/03/11 14:17:31;;;;;;;4.50;4.10;;;;;;;;;;10344157;28;20567;-80
2022/03/11 14:22:34;;;;;;;4.50;4.10;;;;;;;;;;10342809;28;20274;-78
2022/03/11 14:27:35;;;;;;;4.18;3.88;;;;;;;;;;10337399;28;20208;-78
2022/03/11 14:32:36;;;;;;;4.30;3.53;;;;;;;;;;10334016;28;20205;-76
2022/03/11 14:37:37;;;;;;;6.10;4.18;;;;;;;;;;10337500;28;20196;-76
2022/03/11 14:42:40;;;;;;;6.85;4.57;;;;;;;;;;10335461;28;20259;-76
2022/03/11 14:47:43;;;;;;;5.05;3.00;;;;;;;;;;10367679;28;20239;-76
2022/03/11 14:52:45;;;;;;;9.40;4.40;;;;;;;;;;10339955;28;20298;-74
2022/03/11 14:57:46;;;;;;;3.88;3.38;;;;;;;;;;10330690;28;20197;-74
2022/03/11 15:02:47;;;;;;;4.20;3.90;;;;;;;;;;10328633;28;20212;-75
2022/03/11 15:07:48;;;;;;;3.15;2.60;;;;;;;;;;10329388;28;20200;-77
2022/03/11 15:12:52;;;;;;;3.83;3.53;;;;;;;;;;10332315;28;20579;-77
2022/03/11 15:17:53;;;;;;;4.90;3.53;;;;;;;;;;10338655;28;20197;-77
2022/03/11 15:22:54;;;;;;;4.53;3.97;;;;;;;;;;10332324;28;20201;-79
2022/03/11 15:27:56;;;;;;;3.45;3.17;;;;;;;;;;10368604;28;20201;-77
2022/03/11 15:32:58;;;;;;;5.38;4.18;;;;;;;;;;10336946;28;20275;-79
2022/03/11 15:37:59;;;;;;;4.35;3.65;;;;;;;;;;10341401;28;20204;-79
2022/03/11 15:43:02;;;;;;;5.70;3.72;;;;;;;;;;10339216;28;20722;-78
2022/03/11 15:48:04;;;;;;;4.22;3.85;;;;;;;;;;10339645;28;20216;-79
2022/03/11 15:53:05;;;;;;;4.60;4.30;;;;;;;;;;10350134;28;20200;-76
2022/03/11 15:58:07;;;;;;;4.05;3.70;;;;;;;;;;10348917;28;20708;-81
2022/03/11 16:03:08;;;;;;;6.43;4.20;;;;;;;;;;10348249;28;20306;-81
2022/03/11 16:08:09;;;;;;;4.47;3.60;;;;;;;;;;10346738;28;20196;-79
2022/03/11 16:13:10;;;;;;;7.45;3.17;;;;;;;;;;10347021;28;20203;-78
2022/03/11 16:18:11;;;;;;;6.53;4.10;;;;;;;;;;10346066;28;20246;-78
2022/03/11 16:23:12;;;;;;;4.03;3.65;;;;;;;;;;10344092;28;20196;-77
2022/03/11 16:28:13;;;;;;;7.65;4.38;;;;;;;;;;10346888;28;20529;-77
2022/03/11 16:33:14;;;;;;;7.28;4.70;;;;;;;;;;10340419;28;20282;-80
2022/03/11 16:38:16;;;;;;;5.22;4.70;;;;;;;;;;10343197;28;20240;-80
2022/03/11 16:43:17;;;;;;;4.57;4.18;;;;;;;;;;10342872;28;20226;-81
2022/03/11 16:48:18;;;;;;;7.40;4.45;;;;;;;;;;10344833;28;20555;-81
2022/03/11 16:53:19;;;;;;;6.25;3.75;;;;;;;;;;10341310;28;20204;-81
2022/03/11 16:58:20;;;;;;;5.10;4.07;;;;;;;;;;10345154;28;20327;-79
2022/03/11 17:03:21;;;;;;;3.50;3.20;;;;;;;;;;10340575;28;20231;-79
2022/03/11 17:08:22;;;;;;;5.13;4.72;;;;;;;;;;10341131;28;20827;-79
2022/03/11 17:13:24;;;;;;;7.30;4.85;;;;;;;;;;10349534;28;20196;-79
2022/03/11 17:18:25;;;;;;;5.43;4.93;;;;;;;;;;10381805;28;20251;-80
2022/03/11 17:23:26;;;;;;;3.15;3.00;;;;;;;;;;10350910;28;20204;-81
2022/03/11 17:28:28;;;;;;;7.05;5.30;;;;;;;;;;10345648;28;20216;-82
2022/03/11 17:33:29;;;;;;;5.22;4.05;;;;;;;;;;10343749;28;20208;-80
2022/03/11 17:38:30;;;;;;;5.97;3.85;;;;;;;;;;10344798;28;20247;-79
2022/03/11 17:43:31;;;;;;;5.70;4.90;;;;;;;;;;10344729;28;20312;-79
2022/03/11 17:48:32;;;;;;;6.03;4.47;;;;;;;;;;10341452;28;20192;-77
2022/03/11 17:53:34;;;;;;;4.82;4.40;;;;;;;;;;10339598;28;20209;-79
2022/03/11 17:58:35;;;;;;;5.63;4.72;;;;;;;;;;10340284;28;20207;-79
2022/03/11 18:03:38;;;;;;;7.45;4.13;;;;;;;;;;10347506;28;20701;-78
2022/03/11 18:08:39;;;;;;;4.95;4.32;;;;;;;;;;10344639;28;20196;-78
2022/03/11 18:13:40;;;;;;;6.88;4.95;;;;;;;;;;10342762;28;20199;-78
2022/03/11 18:18:41;;;;;;;3.78;3.58;;;;;;;;;;10338397;28;20203;-76
2022/03/11 18:23:42;;;;;;;5.68;5.10;;;;;;;;;;10344422;28;20212;-77
2022/03/11 18:28:43;;;;;;;3.55;2.92;;;;;;;;;;10336364;28;20215;-76
2022/03/11 18:33:44;;;;;;;5.05;4.35;;;;;;;;;;10336573;28;20611;-78
2022/03/11 18:38:45;;;;;;;7.53;4.93;;;;;;;;;;10335549;28;20224;-75
2022/03/11 18:43:47;;;;;;;7.40;5.13;;;;;;;;;;10342774;28;20215;-76
2022/03/11 18:48:49;;;;;;;7.25;4.80;;;;;;;;;;10337304;28;20664;-76
2022/03/11 18:53:50;;;;;;;4.28;3.30;;;;;;;;;;10335756;28;20207;-72
2022/03/11 18:58:54;;;;;;;3.70;3.38;;;;;;;;;;10352016;28;20197;-77
2022/03/11 19:03:56;;;;;;;5.18;4.57;;;;;;;;;;10336367;28;20231;-78
2022/03/11 19:08:59;;;;;;;5.38;4.10;;;;;;;;;;10335471;28;20576;-75
2022/03/11 19:14:00;;;;;;;4.18;3.78;;;;;;;;;;10338824;28;20212;-75
2022/03/11 19:19:01;;;;;;;5.10;4.70;;;;;;;;;;10338121;28;20200;-78
2022/03/11 19:24:04;;;;;;;8.80;4.40;;;;;;;;;;10339161;28;20252;-79
2022/03/11 19:29:05;;;;;;;19.15;11.38;;;;;;;;;;10373192;28;20250;-78
2022/03/11 19:34:07;;;;;;;18.35;10.20;;;;;;;;;;10337279;28;20213;-83
2022/03/11 19:39:09;;;;;;;8.38;5.45;;;;;;;;;;10338601;28;20282;-78
2022/03/11 19:44:13;;;;;;;8.88;6.30;;;;;;;;;;10334613;28;21199;-80
2022/03/11 19:49:14;;;;;;;5.60;5.10;;;;;;;;;;10337984;28;20645;-76
2022/03/11 19:54:15;;;;;;;6.43;5.30;;;;;;;;;;10336989;28;20215;-77
2022/03/11 19:59:16;;;;;;;5.80;5.22;;;;;;;;;;10335778;28;20695;-80
2022/03/11 20:04:18;;;;;;;7.32;5.55;;;;;;;;;;10336541;28;20408;-78
2022/03/11 20:09:19;;;;;;;5.60;4.75;;;;;;;;;;10341309;28;20686;-79
2022/03/11 20:14:24;;;;;;;8.50;5.68;;;;;;;;;;10339351;28;20600;-78
2022/03/11 20:19:26;;;;;;;4.80;4.50;;;;;;;;;;10339009;28;20192;-76
2022/03/11 20:24:27;;;;;;;6.20;5.68;;;;;;;;;;10337249;28;20209;-78
2022/03/11 20:29:28;;;;;;;10.70;5.55;;;;;;;;;;10335072;28;20193;-77
2022/03/11 20:34:29;;;;;;;6.22;5.63;;;;;;;;;;10335276;28;20299;-76
2022/03/11 20:39:30;;;;;;;3.97;3.65;;;;;;;;;;10338082;28;20224;-80
2022/03/11 20:44:31;;;;;;;8.30;5.45;;;;;;;;;;10344085;28;20259;-77
2022/03/11 20:49:35;;;;;;;6.95;5.65;;;;;;;;;;10344445;28;20228;-82
2022/03/11 20:54:37;;;;;;;5.65;4.22;;;;;;;;;;10343313;28;20205;-80
2022/03/11 20:59:38;;;;;;;6.57;5.13;;;;;;;;;;10345837;28;20212;-77
2022/03/11 21:04:39;;;;;;;3.60;3.30;;;;;;;;;;10340352;28;21170;-76
2022/03/11 21:09:40;;;;;;;5.80;5.20;;;;;;;;;;10340256;28;20614;-77
2022/03/11 21:14:42;;;;;;;5.57;4.35;;;;;;;;;;10340150;28;20377;-75
2022/03/11 21:19:43;;;;;;;5.30;4.75;;;;;;;;;;10340132;28;20220;-76
2022/03/11 21:24:44;;;;;;;6.03;4.97;;;;;;;;;;10348362;28;20207;-78
2022/03/11 21:29:45;;;;;;;5.97;5.30;;;;;;;;;;10344149;28;20200;-78
2022/03/11 21:34:46;;;;;;;7.40;4.90;;;;;;;;;;10345315;28;20220;-77
2022/03/11 21:39:47;;;;;;;5.82;5.07;;;;;;;;;;10347272;28;20244;-82
2022/03/11 21:44:49;;;;;;;6.25;4.90;;;;;;;;;;10346635;28;20204;-78
2022/03/11 21:49:50;;;;;;;6.70;5.10;;;;;;;;;;10342567;28;20274;-75
2022/03/11 21:54:51;;;;;;;5.47;4.22;;;;;;;;;;10340401;28;20259;-75
2022/03/11 21:59:52;;;;;;;10.68;5.47;;;;;;;;;;10340973;28;20239;-75
2022/03/11 22:04:53;;;;;;;6.20;4.88;;;;;;;;;;10341137;28;20232;-76
2022/03/11 22:09:54;;;;;;;4.47;4.18;;;;;;;;;;10343167;28;20680;-77
2022/03/11 22:14:55;;;;;;;5.78;4.43;;;;;;;;;;10337300;28;20270;-77
2022/03/11 22:19:56;;;;;;;4.43;4.03;;;;;;;;;;10372578;28;20212;-78
2022/03/11 22:24:58;;;;;;;5.25;4.75;;;;;;;;;;10342508;28;20200;-77
2022/03/11 22:29:59;;;;;;;4.82;4.38;;;;;;;;;;10339866;28;20265;-77
2022/03/11 22:35:01;;;;;;;7.80;5.07;;;;;;;;;;10340694;28;20981;-78
2022/03/11 22:40:02;;;;;;;5.18;4.68;;;;;;;;;;10337777;28;20643;-77
2022/03/11 22:45:05;;;;;;;4.50;3.83;;;;;;;;;;10372787;28;20211;-78
2022/03/11 22:55:35;;;;;;;4.82;4.32;;;;;;;;;;10341745;28;20192;-77
2022/03/11 23:00:47;;;;;;;4.03;2.55;;;;;;;;;;10334182;28;20339;-76
2022/03/11 23:05:48;;;;;;;6.35;4.50;;;;;;;;;;10338667;28;20205;-77
2022/03/11 23:10:50;;;;;;;6.45;5.03;;;;;;;;;;10340138;28;20972;-78
2022/03/11 23:15:53;;;;;;;5.47;4.75;;;;;;;;;;10340607;28;20197;-77
2022/03/11 23:20:54;;;;;;;6.85;4.53;;;;;;;;;;10337992;28;20208;-76
2022/03/11 23:25:55;;;;;;;9.20;5.38;;;;;;;;;;10339485;28;20235;-77
2022/03/11 23:30:58;;;;;;;5.05;4.32;;;;;;;;;;10340125;28;20223;-77
2022/03/11 23:36:00;;;;;;;9.48;5.18;;;;;;;;;;10339261;28;20201;-77
2022/03/11 23:41:01;;;;;;;5.88;5.05;;;;;;;;;;10340047;28;20239;-77
2022/03/11 23:46:02;;;;;;;5.97;4.85;;;;;;;;;;10340079;28;20203;-79
2022/03/11 23:51:04;;;;;;;5.03;4.32;;;;;;;;;;10337703;28;20876;-78
2022/03/11 23:56:05;;;;;;;5.82;4.70;;;;;;;;;;10342768;28;20196;-76
